Kilbarchan, United Kingdom
Current Conditions -  °F | °C
As of 10:50 PM on Saturday 20 Dec 2014 (Local Time) from EGPF Reporting Station
Broken Clouds Broken Clouds  
Wind Chill: 37°   Ceiling: 1200
Heat Index: 45°   Visibility: 6mi
Dew Point: 43°   Wind: 17mph
Humidity: 93%   Direction: 230°SW
Pressure: 30.18"   Gusts: NA
Location:  55.84°N, 4.55°W
Report Text: EGPF 202250Z AUTO 23015KT 9999 BKN012 07/06 Q1022
Loading
Personal Weather Stations






























Interactive Weather Map New forecast layout! Learn more

10-Day Weather Forecast

Advertisements
Track Severe Weather on mobile